Time;durP1;ratioP1;P1;durP2;ratioP2;P2;SDS_P1;SDS_P2;PMS_P1;PMS_P2;Temp;Humidity;BMP_temperature;BMP_pressure;BME280_temperature;BME280_humidity;BME280_pressure;Samples;Min_cycle;Max_cycle;Signal;HPM_P1;HPM_P2
2020/12/09 00:00:31;;;;;;;;;;;;;;;5.83;100.00;99087.06;4844680;29;20293;-76
2020/12/09 00:02:58;;;;;;;;;;;;;;;5.84;100.00;99094.19;4845038;29;19935;-77
2020/12/09 00:05:24;;;;;;;;;;;;;;;5.86;100.00;99086.28;4844773;29;20301;-77
2020/12/09 00:07:51;;;;;;;;;;;;;;;5.88;100.00;99095.00;4844763;29;19928;-77
2020/12/09 00:10:18;;;;;;;;;;;;;;;5.89;100.00;99088.28;4844709;29;20004;-77
2020/12/09 00:12:44;;;;;;;;;;;;;;;5.87;100.00;99094.22;4844457;29;20300;-77
2020/12/09 00:15:11;;;;;;;;;;;;;;;5.87;100.00;99096.19;4843389;29;20392;-77
2020/12/09 00:17:37;;;;;;;;;;;;;;;5.88;100.00;99093.00;4843354;29;20410;-77
2020/12/09 00:20:04;;;;;;;;;;;;;;;5.84;100.00;99102.50;4843247;29;19928;-77
2020/12/09 00:22:32;;;;;;;;;;;;;;;5.84;100.00;99102.50;4843312;29;20373;-77
2020/12/09 00:24:58;;;;;;;;;;;;;;;5.84;100.00;99111.63;4844512;29;19928;-77
2020/12/09 00:27:25;;;;;;;;;;;;;;;5.88;100.00;99108.88;4844185;29;20000;-77
2020/12/09 00:29:52;;;;;;;;;;;;;;;5.89;100.00;99102.13;4844096;29;19929;-77
2020/12/09 00:32:18;;;;;;;;;;;;;;;5.91;100.00;99097.00;4844399;29;19935;-77
2020/12/09 00:34:45;;;;;;;;;;;;;;;5.92;100.00;99099.38;4858283;29;19984;-76
2020/12/09 00:37:12;;;;;;;;;;;;;;;5.95;100.00;99109.69;4844227;29;19929;-77
2020/12/09 00:39:39;;;;;;;;;;;;;;;5.95;100.00;99097.78;4858274;29;19943;-77
2020/12/09 00:42:05;;;;;;;;;;;;;;;5.93;100.00;99089.88;4842634;29;19929;-77
2020/12/09 00:44:32;;;;;;;;;;;;;;;5.93;100.00;99102.94;4827745;29;19972;-77
2020/12/09 00:47:00;;;;;;;;;;;;;;;5.93;100.00;99100.16;4844231;29;19928;-77
2020/12/09 00:49:26;;;;;;;;;;;;;;;5.87;100.00;99093.41;4858203;29;20020;-77
2020/12/09 00:51:53;;;;;;;;;;;;;;;5.84;100.00;99097.75;4843847;29;20389;-77
2020/12/09 00:54:20;;;;;;;;;;;;;;;5.85;100.00;99104.09;4857671;29;20317;-77
2020/12/09 00:56:47;;;;;;;;;;;;;;;5.81;100.00;99106.03;4857911;29;20028;-76
2020/12/09 00:59:16;;;;;;;;;;;;;;;5.84;100.00;99106.09;4857751;29;19928;-77
2020/12/09 01:01:42;;;;;;;;;;;;;;;5.87;100.00;99104.50;4843763;29;19935;-77
2020/12/09 01:04:15;;;;;;;;;;;;;;;5.87;100.00;99112.81;4842759;29;19928;-77
2020/12/09 01:06:42;;;;;;;;;;;;;;;5.85;100.00;99106.84;4842531;29;19984;-77
2020/12/09 01:09:09;;;;;;;;;;;;;;;5.81;100.00;99108.81;4843529;29;19929;-76
2020/12/09 01:11:35;;;;;;;;;;;;;;;5.80;100.00;99112.78;4843457;29;20356;-77
2020/12/09 01:14:02;;;;;;;;;;;;;;;5.78;100.00;99120.69;4843424;29;19929;-77
2020/12/09 01:16:28;;;;;;;;;;;;;;;5.77;100.00;99102.47;4857583;29;19936;-77
2020/12/09 01:18:55;;;;;;;;;;;;;;;5.75;100.00;99115.91;4857686;29;20438;-77
2020/12/09 01:21:31;;;;;;;;;;;;;;;5.73;100.00;99113.53;4843384;29;19929;-77
2020/12/09 01:23:57;;;;;;;;;;;;;;;5.72;100.00;99125.00;4843436;29;19984;-77
2020/12/09 01:26:24;;;;;;;;;;;;;;;5.74;100.00;99126.19;4843337;29;20080;-77
2020/12/09 01:28:51;;;;;;;;;;;;;;;5.76;100.00;99129.38;4857355;29;19985;-76
2020/12/09 01:31:18;;;;;;;;;;;;;;;5.75;100.00;99132.53;4856837;29;19932;-77
2020/12/09 01:33:45;;;;;;;;;;;;;;;5.73;100.00;99134.91;4842083;29;19928;-77
2020/12/09 01:36:12;;;;;;;;;;;;;;;5.72;100.00;99141.63;4857450;29;19936;-77
2020/12/09 01:38:38;;;;;;;;;;;;;;;5.69;100.00;99134.91;4843537;29;19935;-77
2020/12/09 01:41:05;;;;;;;;;;;;;;;5.69;100.00;99134.91;4857249;29;19928;-77
2020/12/09 01:43:42;;;;;;;;;;;;;;;5.70;100.00;99132.91;4841638;29;19936;-77
2020/12/09 01:46:10;;;;;;;;;;;;;;;5.73;100.00;99134.91;4843217;29;19928;-77
2020/12/09 01:48:37;;;;;;;;;;;;;;;5.75;100.00;99138.09;4843159;29;19968;-77
2020/12/09 01:51:04;;;;;;;;;;;;;;;5.75;100.00;99127.81;4842991;29;19961;-77
2020/12/09 01:53:30;;;;;;;;;;;;;;;5.74;100.00;99131.75;4843143;29;19935;-77
2020/12/09 01:55:57;;;;;;;;;;;;;;;5.68;100.00;99124.97;4842858;29;19929;-77
2020/12/09 01:58:24;;;;;;;;;;;;;;;5.65;100.00;99127.75;4843073;29;19936;-76
2020/12/09 02:00:52;;;;;;;;;;;;;;;5.61;100.00;99116.66;4842991;29;20077;-76
2020/12/09 02:03:19;;;;;;;;;;;;;;;5.58;100.00;99118.22;4842963;29;20301;-76
2020/12/09 02:05:46;;;;;;;;;;;;;;;5.60;100.00;99121.38;4845221;29;20011;-77
2020/12/09 02:08:12;;;;;;;;;;;;;;;5.59;100.00;99124.53;4860919;29;19936;-77
2020/12/09 02:10:39;;;;;;;;;;;;;;;5.65;100.00;99127.75;4846614;29;19929;-76
2020/12/09 02:13:06;;;;;;;;;;;;;;;5.63;100.00;99136.47;4845492;29;20030;-77
2020/12/09 02:15:33;;;;;;;;;;;;;;;5.64;100.00;99138.03;4846857;29;20023;-77
2020/12/09 02:17:59;;;;;;;;;;;;;;;5.65;100.00;99138.84;4846610;29;19939;-77
2020/12/09 02:20:26;;;;;;;;;;;;;;;5.67;100.00;99136.47;4860729;29;19928;-77
2020/12/09 02:22:53;;;;;;;;;;;;;;;5.67;100.00;99137.25;4860779;29;19990;-77
2020/12/09 02:25:20;;;;;;;;;;;;;;;5.69;100.00;99139.66;4845165;29;19928;-77
2020/12/09 02:27:46;;;;;;;;;;;;;;;5.69;100.00;99156.28;4846503;29;19976;-77
2020/12/09 02:30:13;;;;;;;;;;;;;;;5.67;100.00;99142.00;4829865;29;19928;-77
2020/12/09 02:32:39;;;;;;;;;;;;;;;5.63;100.00;99153.88;4845260;29;19929;-77
2020/12/09 02:35:06;;;;;;;;;;;;;;;5.63;100.00;99163.38;4845274;29;19935;-76
2020/12/09 02:37:33;;;;;;;;;;;;;;;5.60;100.00;99168.50;4858924;29;19929;-77
2020/12/09 02:39:59;;;;;;;;;;;;;;;5.60;100.00;99165.75;4846231;29;20384;-77
2020/12/09 02:42:26;;;;;;;;;;;;;;;5.53;100.00;99154.63;4846248;29;19928;-77
2020/12/09 02:44:52;;;;;;;;;;;;;;;5.54;100.00;99166.50;4846261;29;20070;-77
2020/12/09 02:47:19;;;;;;;;;;;;;;;5.51;100.00;99162.53;4846292;29;19951;-77
2020/12/09 02:49:46;;;;;;;;;;;;;;;5.49;100.00;99153.00;4860148;29;19973;-77
2020/12/09 02:52:12;;;;;;;;;;;;;;;5.49;100.00;99172.41;4846054;29;19951;-76
2020/12/09 02:54:39;;;;;;;;;;;;;;;5.50;100.00;99177.56;4846016;29;19929;-77
2020/12/09 02:57:06;;;;;;;;;;;;;;;5.47;100.00;99178.34;4846246;29;20027;-77
2020/12/09 02:59:32;;;;;;;;;;;;;;;5.46;100.00;99171.22;4846278;29;19935;-77
2020/12/09 03:01:59;;;;;;;;;;;;;;;5.45;100.00;99179.94;4846048;29;20596;-77
2020/12/09 03:04:25;;;;;;;;;;;;;;;5.44;100.00;99159.72;4860230;29;19932;-77
2020/12/09 03:06:52;;;;;;;;;;;;;;;5.43;100.00;99172.00;4845869;29;19964;-77
2020/12/09 03:09:18;;;;;;;;;;;;;;;5.44;100.00;99181.09;4845816;29;20383;-77
2020/12/09 03:11:45;;;;;;;;;;;;;;;5.43;100.00;99183.09;4845841;29;19932;-77
2020/12/09 03:14:12;;;;;;;;;;;;;;;5.41;100.00;99179.88;4845841;29;19928;-77
2020/12/09 03:16:38;;;;;;;;;;;;;;;5.39;100.00;99173.16;4859535;29;20398;-78
2020/12/09 03:19:05;;;;;;;;;;;;;;;5.36;100.00;99177.47;4860116;29;19933;-76
2020/12/09 03:21:31;;;;;;;;;;;;;;;5.36;100.00;99176.69;4859794;29;20366;-76
2020/12/09 03:23:58;;;;;;;;;;;;;;;5.35;100.00;99167.59;4845663;29;19972;-77
2020/12/09 03:26:26;;;;;;;;;;;;;;;5.33;100.00;99183.78;4859868;29;19932;-76
2020/12/09 03:28:54;;;;;;;;;;;;;;;5.34;100.00;99185.41;4845665;29;19929;-76
2020/12/09 03:31:20;;;;;;;;;;;;;;;5.31;100.00;99172.31;4859852;29;19936;-77
2020/12/09 03:33:47;;;;;;;;;;;;;;;5.31;100.00;99191.72;4844250;29;20015;-77
2020/12/09 03:36:13;;;;;;;;;;;;;;;5.29;100.00;99182.97;4859524;29;19967;-77
2020/12/09 03:38:40;;;;;;;;;;;;;;;5.28;100.00;99186.13;4845263;29;19936;-76
2020/12/09 03:41:06;;;;;;;;;;;;;;;5.26;100.00;99186.53;4845462;29;20031;-77
2020/12/09 03:43:33;;;;;;;;;;;;;;;5.26;100.00;99194.84;4845299;29;20011;-77
2020/12/09 03:46:00;;;;;;;;;;;;;;;5.27;100.00;99196.41;4844446;29;20301;-76
2020/12/09 03:48:26;;;;;;;;;;;;;;;5.27;100.00;99182.56;4845383;29;19929;-76
2020/12/09 03:50:53;;;;;;;;;;;;;;;5.29;100.00;99199.59;4859346;29;19928;-77
2020/12/09 03:53:21;;;;;;;;;;;;;;;5.30;100.00;99194.88;4859183;29;20385;-77
2020/12/09 03:55:48;;;;;;;;;;;;;;;5.28;100.00;99202.75;4845205;29;19935;-77
2020/12/09 03:58:14;;;;;;;;;;;;;;;5.28;100.00;99198.03;4845195;29;19928;-77
2020/12/09 04:00:41;;;;;;;;;;;;;;;5.28;100.00;99197.22;4859336;29;20433;-77
2020/12/09 04:03:08;;;;;;;;;;;;;;;5.30;100.00;99194.88;4843880;29;19936;-77
2020/12/09 04:05:34;;;;;;;;;;;;;;;5.30;100.00;99205.94;4859185;29;19929;-77
2020/12/09 04:08:01;;;;;;;;;;;;;;;5.31;100.00;99202.78;4844865;29;19935;-77
2020/12/09 04:10:27;;;;;;;;;;;;;;;5.35;100.00;99214.69;4844024;29;20277;-77
2020/12/09 04:12:54;;;;;;;;;;;;;;;5.35;100.00;99214.69;4844903;29;20391;-77
2020/12/09 04:15:20;;;;;;;;;;;;;;;5.37;100.00;99217.06;4843659;29;19969;-77
2020/12/09 04:17:47;;;;;;;;;;;;;;;5.35;100.00;99217.47;4843766;29;19928;-77
2020/12/09 04:20:14;;;;;;;;;;;;;;;5.33;100.00;99207.94;4858774;29;19928;-77
2020/12/09 04:22:40;;;;;;;;;;;;;;;5.34;100.00;99199.25;4844522;29;19939;-77
2020/12/09 04:25:07;;;;;;;;;;;;;;;5.31;100.00;99211.09;4844690;29;20526;-77
2020/12/09 04:27:33;;;;;;;;;;;;;;;5.30;100.00;99200.41;4843759;29;20015;-77
2020/12/09 04:30:00;;;;;;;;;;;;;;;5.25;100.00;99201.56;4843280;29;19928;-76
2020/12/09 04:32:26;;;;;;;;;;;;;;;5.21;100.00;99211.81;4858555;29;19928;-77
2020/12/09 04:34:56;;;;;;;;;;;;;;;5.14;100.00;99200.69;4844358;29;19932;-77
2020/12/09 04:37:25;;;;;;;;;;;;;;;5.12;100.00;99205.00;4844226;29;19929;-77
2020/12/09 04:39:52;;;;;;;;;;;;;;;5.10;100.00;99202.59;4843358;29;19929;-77
2020/12/09 04:42:20;;;;;;;;;;;;;;;5.09;100.00;99201.03;4842922;29;19936;-76
2020/12/09 04:44:47;;;;;;;;;;;;;;;5.11;100.00;99206.19;4844269;29;20398;-76
2020/12/09 04:47:18;;;;;;;;;;;;;;;5.16;100.00;99206.66;4858332;29;19928;-77
2020/12/09 04:49:48;;;;;;;;;;;;;;;5.19;100.00;99216.16;4842688;29;19928;-77
2020/12/09 04:52:37;;;;;;;;;;;;;;;5.21;100.00;99220.13;4858169;29;19928;-77
2020/12/09 04:55:06;;;;;;;;;;;;;;;5.22;100.00;99221.72;4844008;29;19967;-77
2020/12/09 04:57:38;;;;;;;;;;;;;;;5.23;100.00;99228.84;4843828;29;19928;-77
2020/12/09 05:00:12;;;;;;;;;;;;;;;5.25;100.00;99231.22;4858117;29;19935;-77
2020/12/09 05:02:49;;;;;;;;;;;;;;;5.23;100.00;99228.84;4857898;29;19928;-77
2020/12/09 05:05:17;;;;;;;;;;;;;;;5.20;100.00;99232.38;4857877;29;19985;-77
2020/12/09 05:07:49;;;;;;;;;;;;;;;5.22;100.00;99232.81;4843760;29;19928;-76
2020/12/09 05:10:17;;;;;;;;;;;;;;;5.18;100.00;99231.97;4843645;29;19932;-77
2020/12/09 05:12:45;;;;;;;;;;;;;;;5.17;100.00;99219.31;4842421;29;20292;-77
2020/12/09 05:15:16;;;;;;;;;;;;;;;5.17;100.00;99224.84;4857768;29;19981;-77
2020/12/09 05:18:02;;;;;;;;;;;;;;;5.15;100.00;99224.41;4841703;29;21538;-76
2020/12/09 05:20:36;;;;;;;;;;;;;;;5.16;100.00;99228.00;4857682;29;19928;-76
2020/12/09 05:23:04;;;;;;;;;;;;;;;5.15;100.00;99231.97;4857723;29;19933;-77
2020/12/09 05:25:32;;;;;;;;;;;;;;;5.13;100.00;99228.75;4843487;29;19933;-77
2020/12/09 05:27:59;;;;;;;;;;;;;;;5.10;100.00;99224.00;4843414;29;19932;-77
2020/12/09 05:30:44;;;;;;;;;;;;;;;5.08;100.00;99218.84;4843396;29;20076;-76
2020/12/09 05:33:16;;;;;;;;;;;;;;;5.06;100.00;99229.50;4843067;29;20420;-77
2020/12/09 05:35:43;;;;;;;;;;;;;;;5.05;100.00;99230.69;4843283;29;19978;-77
2020/12/09 05:38:11;;;;;;;;;;;;;;;5.05;100.00;99236.22;4843200;29;20403;-76
2020/12/09 05:40:38;;;;;;;;;;;;;;;5.02;100.00;99236.97;4843240;29;19929;-77
2020/12/09 05:43:05;;;;;;;;;;;;;;;5.05;100.00;99238.19;4857264;29;20433;-77
2020/12/09 05:45:31;;;;;;;;;;;;;;;5.06;100.00;99234.22;4841970;29;19929;-76
2020/12/09 05:48:16;;;;;;;;;;;;;;;5.05;100.00;99239.00;4842834;29;19932;-77
2020/12/09 05:50:45;;;;;;;;;;;;;;;5.05;100.00;99247.28;4843214;29;20037;-76
2020/12/09 05:53:15;;;;;;;;;;;;;;;5.04;100.00;99242.91;4857104;29;19928;-77
2020/12/09 05:55:42;;;;;;;;;;;;;;;5.04;100.00;99253.22;4841834;29;19976;-77
2020/12/09 05:58:22;;;;;;;;;;;;;;;5.03;100.00;99252.41;4857186;29;19933;-76
2020/12/09 06:01:04;;;;;;;;;;;;;;;5.07;100.00;99264.31;4842873;29;19978;-77
2020/12/09 06:03:31;;;;;;;;;;;;;;;5.08;100.00;99260.38;4842912;29;19929;-77
2020/12/09 06:06:06;;;;;;;;;;;;;;;5.05;100.00;99266.69;4843042;29;20369;-77
2020/12/09 06:08:47;;;;;;;;;;;;;;;5.06;100.00;99261.91;4857113;29;20631;-77
2020/12/09 06:11:16;;;;;;;;;;;;;;;5.06;100.00;99273.81;4842888;29;19933;-77
2020/12/09 06:13:43;;;;;;;;;;;;;;;5.07;100.00;99275.38;4843080;29;19929;-77
2020/12/09 06:16:10;;;;;;;;;;;;;;;5.04;100.00;99265.06;4842794;29;19932;-77
2020/12/09 06:18:37;;;;;;;;;;;;;;;5.03;100.00;99268.22;4842310;29;19935;-77
2020/12/09 06:21:05;;;;;;;;;;;;;;;5.01;100.00;99265.84;4842390;29;19985;-77
2020/12/09 06:23:31;;;;;;;;;;;;;;;5.03;100.00;99260.72;4842376;29;19948;-77
2020/12/09 06:25:59;;;;;;;;;;;;;;;5.02;100.00;99267.44;4842232;29;20316;-77
2020/12/09 06:28:27;;;;;;;;;;;;;;;5.01;100.00;99257.53;4841305;29;20031;-77
2020/12/09 06:30:54;;;;;;;;;;;;;;;4.96;100.00;99260.66;4856252;29;19929;-77
2020/12/09 06:33:33;;;;;;;;;;;;;;;5.00;100.00;99255.94;4856024;29;19981;-77
2020/12/09 06:36:19;;;;;;;;;;;;;;;5.02;100.00;99261.91;4856327;29;20300;-77
2020/12/09 06:39:07;;;;;;;;;;;;;;;4.99;100.00;99257.13;4841144;29;19929;-77
2020/12/09 06:41:34;;;;;;;;;;;;;;;5.00;100.00;99261.47;4842088;29;19935;-77
2020/12/09 06:44:01;;;;;;;;;;;;;;;4.99;100.00;99259.91;4856040;29;19951;-77
2020/12/09 06:46:36;;;;;;;;;;;;;;;5.01;100.00;99265.84;4856236;29;20027;-77
2020/12/09 06:49:04;;;;;;;;;;;;;;;5.02;100.00;99267.44;4842413;29;20281;-77
2020/12/09 06:51:38;;;;;;;;;;;;;;;4.98;100.00;99263.84;4843964;29;19960;-77
2020/12/09 06:54:09;;;;;;;;;;;;;;;4.98;100.00;99269.38;4854784;29;19928;-76
2020/12/09 07:06:19;;;;;;;;;;;;;;;4.95;100.00;99278.44;4845001;29;19962;-76
2020/12/09 07:08:47;;;;;;;;;;;;;;;5.00;100.00;99274.53;4845874;29;19935;-75
2020/12/09 07:11:16;;;;;;;;;;;;;;;4.94;100.00;99267.75;4844164;29;19933;-75
2020/12/09 07:13:43;;;;;;;;;;;;;;;4.93;100.00;99269.75;4845200;29;20012;-75
2020/12/09 07:16:10;;;;;;;;;;;;;;;4.93;100.00;99264.19;4859281;29;19935;-75
2020/12/09 07:18:37;;;;;;;;;;;;;;;4.92;100.00;99268.13;4845780;29;19934;-75
2020/12/09 07:21:08;;;;;;;;;;;;;;;4.96;100.00;99277.28;4858909;29;19928;-76
2020/12/09 07:23:35;;;;;;;;;;;;;;;4.96;100.00;99271.75;4843786;29;20412;-76
2020/12/09 07:26:02;;;;;;;;;;;;;;;4.94;100.00;99264.97;4859607;29;19971;-76
2020/12/09 07:28:32;;;;;;;;;;;;;;;4.95;100.00;99275.66;4845272;29;20353;-75
2020/12/09 07:31:09;;;;;;;;;;;;;;;4.98;100.00;99271.38;4859268;29;19933;-76
2020/12/09 07:33:35;;;;;;;;;;;;;;;4.97;100.00;99276.09;4844204;29;20389;-76
2020/12/09 07:36:02;;;;;;;;;;;;;;;5.00;100.00;99280.06;4844250;29;20293;-76
2020/12/09 07:38:28;;;;;;;;;;;;;;;4.99;100.00;99284.03;4844253;29;20031;-76
2020/12/09 07:40:58;;;;;;;;;;;;;;;4.99;100.00;99284.03;4859283;29;20442;-76
2020/12/09 07:43:24;;;;;;;;;;;;;;;5.01;100.00;99290.75;4845166;29;19936;-76
2020/12/09 07:45:51;;;;;;;;;;;;;;;4.98;100.00;99285.22;4845133;29;20349;-76
2020/12/09 07:48:18;;;;;;;;;;;;;;;4.97;100.00;99284.41;4844118;29;19951;-76
2020/12/09 07:50:48;;;;;;;;;;;;;;;4.94;100.00;99285.16;4845147;29;19928;-76
2020/12/09 07:53:15;;;;;;;;;;;;;;;4.91;100.00;99285.13;4843830;29;19935;-75
2020/12/09 07:55:42;;;;;;;;;;;;;;;4.90;100.00;99287.13;4843903;29;19945;-75
2020/12/09 07:58:12;;;;;;;;;;;;;;;4.92;100.00;99281.97;4844165;29;20023;-75
2020/12/09 08:00:39;;;;;;;;;;;;;;;4.92;100.00;99284.75;4845098;29;20022;-75
2020/12/09 08:03:07;;;;;;;;;;;;;;;4.95;100.00;99283.97;4843666;29;20310;-75
2020/12/09 08:05:34;;;;;;;;;;;;;;;4.95;100.00;99278.44;4828517;29;19929;-75
2020/12/09 08:08:01;;;;;;;;;;;;;;;4.93;100.00;99278.03;4843669;29;19928;-75
2020/12/09 08:10:31;;;;;;;;;;;;;;;4.91;100.00;99274.84;4844739;29;19929;-75
2020/12/09 08:13:09;;;;;;;;;;;;;;;4.92;100.00;99278.44;4844706;29;19933;-76
2020/12/09 08:15:37;;;;;;;;;;;;;;;4.91;100.00;99279.59;4843624;29;19932;-76
2020/12/09 08:18:03;;;;;;;;;;;;;;;4.94;100.00;99282.41;4843656;29;19928;-76
2020/12/09 08:20:30;;;;;;;;;;;;;;;4.96;100.00;99280.06;4842988;29;19960;-76
2020/12/09 08:22:58;;;;;;;;;;;;;;;4.96;100.00;99280.06;4858805;29;19935;-76
2020/12/09 08:25:27;;;;;;;;;;;;;;;4.96;100.00;99273.72;4843284;29;19929;-76
2020/12/09 08:27:54;;;;;;;;;;;;;;;4.97;100.00;99280.81;4844256;29;19935;-76
2020/12/09 08:30:22;;;;;;;;;;;;;;;4.98;100.00;99272.13;4858336;29;19932;-77
2020/12/09 08:33:16;;;;;;;;;;;;;;;4.99;100.00;99276.53;4844158;29;19929;-76
2020/12/09 08:35:45;;;;;;;;;;;;;;;4.99;100.00;99284.03;4842879;29;20274;-77
2020/12/09 08:38:23;;;;;;;;;;;;;;;4.97;100.00;99278.88;4844125;29;19977;-77
2020/12/09 08:40:52;;;;;;;;;;;;;;;4.96;100.00;99274.50;4844024;29;20023;-77
2020/12/09 08:43:21;;;;;;;;;;;;;;;4.95;100.00;99277.66;4858154;29;20000;-76
2020/12/09 08:45:48;;;;;;;;;;;;;;;4.95;100.00;99267.38;4842869;29;19928;-76
2020/12/09 08:48:14;;;;;;;;;;;;;;;4.95;100.00;99272.91;4843088;29;19999;-76
2020/12/09 08:50:42;;;;;;;;;;;;;;;4.95;100.00;99283.97;4844009;29;20370;-75
2020/12/09 08:53:08;;;;;;;;;;;;;;;4.96;100.00;99282.00;4827904;29;19981;-75
2020/12/09 08:55:35;;;;;;;;;;;;;;;5.04;100.00;99292.00;4842478;29;19977;-75
2020/12/09 08:58:01;;;;;;;;;;;;;;;5.05;100.00;99288.84;4842576;29;19932;-75
2020/12/09 09:00:28;;;;;;;;;;;;;;;5.08;100.00;99292.81;4843892;29;19938;-75
2020/12/09 09:02:56;;;;;;;;;;;;;;;5.14;100.00;99299.59;4843868;29;20011;-75
2020/12/09 09:05:23;;;;;;;;;;;;;;;5.15;100.00;99293.66;4843858;29;19928;-76
2020/12/09 09:07:49;;;;;;;;;;;;;;;5.19;100.00;99294.53;4843648;29;20126;-76
2020/12/09 09:10:15;;;;;;;;;;;;;;;5.19;100.00;99293.72;4843526;29;19936;-75
2020/12/09 09:12:42;;;;;;;;;;;;;;;5.17;100.00;99285.78;4842478;29;19986;-75
2020/12/09 09:15:09;;;;;;;;;;;;;;;5.20;100.00;99293.34;4843362;29;19929;-75
2020/12/09 09:17:36;;;;;;;;;;;;;;;5.22;100.00;99288.22;4843614;29;19968;-75
2020/12/09 09:20:03;;;;;;;;;;;;;;;5.22;100.00;99287.41;4843388;29;20292;-76
2020/12/09 09:22:30;;;;;;;;;;;;;;;5.23;100.00;99277.91;4843533;29;19932;-75
2020/12/09 09:24:56;;;;;;;;;;;;;;;5.28;100.00;99286.69;4843646;29;19933;-75
2020/12/09 09:27:23;;;;;;;;;;;;;;;5.29;100.00;99288.25;4843550;29;20262;-76
2020/12/09 09:29:50;;;;;;;;;;;;;;;5.33;100.00;99293.84;4843558;29;19933;-77
2020/12/09 09:32:25;;;;;;;;;;;;;;;5.34;100.00;99296.22;4843008;29;19929;-76
2020/12/09 09:34:52;;;;;;;;;;;;;;;5.38;100.00;99296.25;4842709;29;20450;-76
2020/12/09 09:37:21;;;;;;;;;;;;;;;5.44;100.00;99306.59;4842255;29;20380;-77
2020/12/09 09:39:48;;;;;;;;;;;;;;;5.36;100.00;99304.16;4843183;29;20396;-76
2020/12/09 09:42:17;;;;;;;;;;;;;;;5.42;100.00;99308.94;4843217;29;19928;-76
2020/12/09 09:44:49;;;;;;;;;;;;;;;5.42;100.00;99302.63;4843781;29;20373;-79
2020/12/09 09:47:44;;;;;;;;;;;;;;;5.39;100.00;99293.09;4827175;29;20026;-78
2020/12/09 09:50:10;;;;;;;;;;;;;;;5.42;100.00;99306.19;4842688;29;20019;-78
2020/12/09 09:52:37;;;;;;;;;;;;;;;5.43;100.00;99296.69;4837864;29;20053;-79
2020/12/09 09:55:04;;;;;;;;;;;;;;;5.30;100.00;99300.94;4842762;29;19929;-79
2020/12/09 09:57:33;;;;;;;;;;;;;;;5.17;100.00;99296.88;4839334;29;19940;-78
2020/12/09 10:00:00;;;;;;;;;;;;;;;5.10;100.00;99293.25;4842918;29;19929;-79
2020/12/09 10:02:26;;;;;;;;;;;;;;;5.05;100.00;99286.06;4855034;29;19932;-79
2020/12/09 10:04:54;;;;;;;;;;;;;;;5.12;100.00;99294.44;4842855;29;19929;-78
2020/12/09 10:07:20;;;;;;;;;;;;;;;5.14;100.00;99292.09;4857544;29;19997;-78
2020/12/09 10:09:47;;;;;;;;;;;;;;;5.17;100.00;99291.31;4842935;29;20027;-80
2020/12/09 10:12:13;;;;;;;;;;;;;;;5.16;100.00;99278.66;4843397;29;19928;-80
2020/12/09 10:14:40;;;;;;;;;;;;;;;5.14;100.00;99282.97;4842138;29;20369;-78
2020/12/09 10:17:07;;;;;;;;;;;;;;;5.16;100.00;99284.19;4841316;29;19929;-79
2020/12/09 10:19:34;;;;;;;;;;;;;;;5.13;100.00;99273.88;4841778;29;20023;-79
2020/12/09 10:22:00;;;;;;;;;;;;;;;5.12;100.00;99272.28;4857322;29;19933;-79
2020/12/09 10:24:27;;;;;;;;;;;;;;;5.10;100.00;99282.16;4842004;29;19987;-79
2020/12/09 10:26:54;;;;;;;;;;;;;;;5.10;100.00;99280.16;4844361;29;19936;-79
2020/12/09 10:29:21;;;;;;;;;;;;;;;5.13;100.00;99276.66;4830627;29;20270;-79
2020/12/09 10:31:49;;;;;;;;;;;;;;;5.20;100.00;99282.25;4860775;29;20289;-78
2020/12/09 10:34:18;;;;;;;;;;;;;;;5.30;100.00;99289.84;4860566;29;19932;-78
2020/12/09 10:36:48;;;;;;;;;;;;;;;5.30;100.00;99289.84;4860444;29;20301;-78
2020/12/09 10:39:16;;;;;;;;;;;;;;;5.35;100.00;99291.47;4860326;29;19935;-79
2020/12/09 10:41:44;;;;;;;;;;;;;;;5.33;100.00;99294.63;4815035;29;19928;-79
2020/12/09 10:44:11;;;;;;;;;;;;;;;5.34;100.00;99301.78;4845100;29;19928;-79
2020/12/09 10:46:39;;;;;;;;;;;;;;;5.31;100.00;99297.00;4860662;29;19929;-79
2020/12/09 10:49:07;;;;;;;;;;;;;;;5.27;100.00;99287.84;4846650;29;19929;-79
2020/12/09 10:51:33;;;;;;;;;;;;;;;5.26;100.00;99286.25;4845229;29;19928;-78
2020/12/09 10:54:00;;;;;;;;;;;;;;;5.42;100.00;99292.31;4844572;29;19929;-78
2020/12/09 10:56:31;;;;;;;;;;;;;;;5.41;100.00;99287.97;4845059;29;19935;-78
2020/12/09 10:59:01;;;;;;;;;;;;;;;5.32;100.00;99287.50;4844989;29;20024;-78
2020/12/09 11:01:29;;;;;;;;;;;;;;;5.38;100.00;99285.97;4845715;29;19936;-76
2020/12/09 11:03:56;;;;;;;;;;;;;;;5.38;100.00;99290.69;4824820;29;20281;-76
2020/12/09 11:06:30;;;;;;;;;;;;;;;5.37;100.00;99278.84;4839007;29;19956;-76
2020/12/09 11:09:16;;;;;;;;;;;;;;;5.39;100.00;99281.22;4831038;29;20759;-77
2020/12/09 11:11:46;;;;;;;;;;;;;;;5.41;100.00;99278.84;4844269;29;20373;-76
2020/12/09 11:14:14;;;;;;;;;;;;;;;5.43;100.00;99280.06;4844081;29;19935;-76
2020/12/09 11:16:40;;;;;;;;;;;;;;;5.45;100.00;99268.59;4843956;29;19933;-76
2020/12/09 11:19:07;;;;;;;;;;;;;;;5.49;100.00;99274.97;4845005;29;19929;-76
2020/12/09 11:21:34;;;;;;;;;;;;;;;5.54;100.00;99271.84;4844747;29;19929;-75
2020/12/09 11:24:01;;;;;;;;;;;;;;;5.48;100.00;99267.84;4844172;29;20350;-76
2020/12/09 11:26:27;;;;;;;;;;;;;;;5.45;100.00;99269.38;4844716;29;19928;-76
2020/12/09 11:28:54;;;;;;;;;;;;;;;5.54;100.00;99272.63;4859189;29;19935;-76
2020/12/09 11:31:21;;;;;;;;;;;;;;;5.52;100.00;99272.22;4859180;29;19928;-77
2020/12/09 11:33:48;;;;;;;;;;;;;;;5.48;100.00;99259.53;4844615;29;19936;-77
2020/12/09 11:36:14;;;;;;;;;;;;;;;5.42;100.00;99263.84;4859037;29;19983;-75
2020/12/09 11:38:41;;;;;;;;;;;;;;;5.46;100.00;99259.91;4852586;29;19991;-76
2020/12/09 11:41:08;;;;;;;;;;;;;;;5.44;100.00;99262.25;4843312;29;19936;-76
2020/12/09 11:43:34;;;;;;;;;;;;;;;5.43;100.00;99263.44;4842745;29;20594;-76
2020/12/09 11:46:01;;;;;;;;;;;;;;;5.38;100.00;99258.25;4843489;29;20269;-76
2020/12/09 11:48:27;;;;;;;;;;;;;;;5.49;100.00;99250.81;4843325;29;19928;-76
2020/12/09 11:50:54;;;;;;;;;;;;;;;5.46;100.00;99243.28;4858315;29;19929;-76
2020/12/09 11:53:20;;;;;;;;;;;;;;;5.44;100.00;99251.16;4844709;29;19929;-76
2020/12/09 11:55:47;;;;;;;;;;;;;;;5.51;100.00;99245.66;4858780;29;19936;-76
2020/12/09 11:58:14;;;;;;;;;;;;;;;5.47;100.00;99239.31;4858579;29;19928;-76
2020/12/09 12:00:40;;;;;;;;;;;;;;;5.46;100.00;99232.19;4823969;29;19932;-75
2020/12/09 12:03:07;;;;;;;;;;;;;;;5.46;100.00;99225.84;4844523;29;19928;-76
2020/12/09 12:05:35;;;;;;;;;;;;;;;5.51;100.00;99234.56;4858271;29;19959;-76
2020/12/09 12:08:06;;;;;;;;;;;;;;;5.55;100.00;99229.88;4858653;29;19983;-76
2020/12/09 12:10:33;;;;;;;;;;;;;;;5.48;100.00;99224.25;4844085;29;19936;-76
2020/12/09 12:13:00;;;;;;;;;;;;;;;5.39;100.00;99221.03;4844249;29;19929;-76
2020/12/09 12:15:26;;;;;;;;;;;;;;;5.19;100.00;99205.88;4858763;29;19932;-76
2020/12/09 12:17:53;;;;;;;;;;;;;;;5.11;100.00;99206.19;4844131;29;20601;-75
2020/12/09 12:20:19;;;;;;;;;;;;;;;5.07;100.00;99195.06;4844246;29;19958;-76
2020/12/09 12:22:46;;;;;;;;;;;;;;;4.97;100.00;99187.47;4844511;29;20004;-76
2020/12/09 12:25:12;;;;;;;;;;;;;;;4.98;100.00;99177.22;4858686;29;19928;-76
2020/12/09 12:27:39;;;;;;;;;;;;;;;4.87;100.00;99166.06;4844304;29;19932;-76
2020/12/09 12:30:05;;;;;;;;;;;;;;;4.89;100.00;99158.13;4844476;29;19928;-76
2020/12/09 12:32:32;;;;;;;;;;;;;;;4.91;100.00;99161.31;4844215;29;20019;-76
2020/12/09 12:34:58;;;;;;;;;;;;;;;4.88;100.00;99162.09;4844443;29;19951;-76
2020/12/09 12:37:25;;;;;;;;;;;;;;;4.80;100.00;99141.06;4844427;29;20388;-77
2020/12/09 12:39:51;;;;;;;;;;;;;;;4.82;100.00;99146.22;4844212;29;19936;-76
2020/12/09 12:42:18;;;;;;;;;;;;;;;4.84;100.00;99139.13;4858243;29;20397;-76
2020/12/09 12:44:45;;;;;;;;;;;;;;;4.87;100.00;99127.28;4858671;29;20254;-76
2020/12/09 12:47:11;;;;;;;;;;;;;;;4.88;100.00;99112.25;4842846;29;20027;-76
2020/12/09 12:49:41;;;;;;;;;;;;;;;4.93;100.00;99114.69;4843183;29;19928;-76
2020/12/09 12:52:08;;;;;;;;;;;;;;;4.99;100.00;99107.59;4858346;29;19935;-76
2020/12/09 12:54:35;;;;;;;;;;;;;;;5.01;100.00;99099.69;4843905;29;19928;-76
2020/12/09 12:57:02;;;;;;;;;;;;;;;5.05;100.00;99097.75;4858139;29;19936;-77
2020/12/09 12:59:29;;;;;;;;;;;;;;;5.10;100.00;99088.28;4858208;29;19933;-76
2020/12/09 13:01:59;;;;;;;;;;;;;;;5.05;100.00;99085.88;4842565;29;20031;-76